Terminal Aerodrome Forecast
Issued by NWS Wilmington, OH

Current Version | Previous Version | Text Only | Print | Product List | Glossary Off
Versions: 1 2 3 4 5 6 7 8 9 10 11 12 13 14 15 16

000
FTUS41 KILN 210540
TAFDAY
TAF
KDAY 210540Z 2106/2206 19007KT P6SM FEW020 SCT050 BKN150
     FM211400 19010KT P6SM BKN015
      TEMPO 2114/2116 4SM BR BKN008 OVC020
     FM211800 21012KT P6SM OVC025
     FM212100 23011KT P6SM VCSH BKN040
     FM220200 27007KT P6SM SCT030=

USA.gov is the U.S. government's official web portal to all federal, state and local government web resources and services.